• Join FlightAware (Why Join?)
  • Login
  • US Flag 
11:30AM EST


 

Airport Tracker/Info


-or-


 

Live Flight TrackerFlight Track Log ✈ N777NC ✈ 05-Jul-2013 ✈ KATL - KORD

Flight Track Log - Related Links

Times and Time Zones

All times are in EDT time to prevent confusion due to time zone crossing. See the N777NC flight status page for this flight to view local times or setup timezone preferences in your user account.

Time Position Orientation Groundspeed Altitude Reporting Facility
EDT Latitude Longitude Course Direction KTS MPH feet Rate Location/Type
10:51PM 33.6561 -84.3733 349° North 440 506 2,600  Level Atlanta Center
10:52PM 33.7167 -84.3000 45° Northeast 314 361 4,500 2,460 Climbing Atlanta TRACON
10:53PM 33.7833 -84.3167 348° North 311 358 7,400 2,940 Climbing Atlanta TRACON
10:54PM 34.1134 -84.5419 347° North  Level FlightAware Approximate
10:54PM 33.8667 -84.3833 326° Northwest 312 359 10,400  Level Atlanta TRACON
10:55PM 34.2332 -84.5742 349° North  Level FlightAware Approximate
10:55PM 33.9272 -84.4469 319° Northwest 325 374 11,700  Level Atlanta Center
10:56PM 34.3539 -84.6015 349° North  Level FlightAware Approximate
10:56PM 34.0103 -84.5225 323° Northwest 360 414 13,100  Level Atlanta Center
10:57PM 34.4746 -84.6290 349° North  Level FlightAware Approximate
10:57PM 34.1042 -84.5531 345° North 366 421 15,000  Level Atlanta Center
10:58PM 34.2272 -84.5839 348° North 384 442 17,400 1,920 Climbing Atlanta Center
10:59PM 34.3397 -84.6072 350° North 411 473 18,900 1,380 Climbing Atlanta Center
11:00PM 34.4567 -84.6308 351° North 421 484 20,200 1,320 Climbing Atlanta Center
11:01PM 34.5628 -84.6542 350° North 426 490 21,600 1,440 Climbing Atlanta Center
11:02PM 34.6858 -84.6753 352° North 432 497 23,100 1,380 Climbing Atlanta Center
11:03PM 34.8108 -84.6992 351° North 448 516 24,400 1,200 Climbing Atlanta Center
11:04PM 34.9506 -84.7281 350° North 448 516 25,500 1,080 Climbing Atlanta Center
11:05PM 35.0819 -84.7519 352° North 460 529 26,600 1,200 Climbing Atlanta Center
11:06PM 35.2153 -84.7811 350° North 472 543 27,900 660 Climbing Atlanta Center
11:07PM 35.3528 -84.8053 352° North 482 555 28,000  Climbing Atlanta Center
11:08PM 35.4944 -84.8372 350° North 499 574 28,000  Level Atlanta Center
11:09PM 35.6361 -84.8794 346° North 512 589 28,000  Level Atlanta Center
11:11PM 35.8886 -84.9406 349° North 534 615 28,000  Level Indianapolis Center
11:12PM 36.0150 -84.9886 343° North 524 603 28,000  Level Indianapolis Center
11:13PM 36.1519 -85.0458 341° North 518 596 28,000  Level Indianapolis Center
11:14PM 36.3222 -85.0931 347° North 520 598 28,000 360 Level Indianapolis Center
11:15PM 36.4633 -85.1381 346° North 522 601 28,800 840 Climbing Indianapolis Center
11:16PM 36.6006 -85.1925 342° North 517 595 29,800 960 Climbing Indianapolis Center
11:17PM 36.7394 -85.2361 346° North 516 594 30,800 960 Climbing Indianapolis Center
11:18PM 36.8775 -85.2792 346° North 512 589 31,800 900 Climbing Indianapolis Center
11:19PM 37.0136 -85.3294 344° North 510 587 32,700 900 Climbing Indianapolis Center
11:20PM 37.1464 -85.3778 344° North 505 581 33,700 660 Climbing Indianapolis Center
11:21PM 37.2836 -85.4208 346° North 505 581 34,100 120 Climbing Indianapolis Center
11:22PM 37.4267 -85.4381 355° North 511 588 34,000 -60 Descending Indianapolis Center
11:23PM 37.5689 -85.4617 353° North 514 592 34,000  Level Indianapolis Center
11:24PM 37.7089 -85.4869 352° North 507 583 34,000  Level Indianapolis Center
11:25PM 37.8528 -85.5189 350° North 511 588 34,000  Level Indianapolis Center
11:26PM 37.9919 -85.5514 350° North 510 587 34,000  Level Indianapolis Center
11:27PM 38.1311 -85.5761 352° North 506 582 34,000  Level Indianapolis Center
11:28PM 38.2744 -85.5861 357° North 513 590 34,000  Level Indianapolis Center
11:29PM 38.4175 -85.6053 354° North 515 593 34,000  Level Indianapolis Center
11:30PM 38.5614 -85.6153 357° North 518 596 34,000  Level Indianapolis Center
11:31PM 38.7206 -85.6233 358° North 518 596 34,000  Level Indianapolis Center
11:32PM 38.8658 -85.6217 North 522 601 34,000  Level Indianapolis Center
11:33PM 39.0103 -85.6236 359° North 522 601 34,000  Level Indianapolis Center
11:34PM 39.1561 -85.6158 North 526 605 34,000  Level Indianapolis Center
11:35PM 39.3011 -85.6131 North 523 602 34,000  Level Indianapolis Center
11:36PM 39.4447 -85.6150 359° North 523 602 34,000  Level Indianapolis Center
11:37PM 39.5906 -85.6058 North 528 608 34,000  Level Indianapolis Center
11:38PM 39.7353 -85.6053 360° North 527 606 34,000  Level Indianapolis Center
11:39PM 39.8786 -85.6186 356° North 523 602 34,000  Level Indianapolis Center
11:41PM 40.0081 -85.6822 339° North 503 579 34,000  Level Indianapolis Center
11:42PM 40.1261 -85.7697 330° Northwest 494 568 34,000  Level Indianapolis Center
11:43PM 40.2739 -85.8672 333° Northwest 499 574 34,000  Level Indianapolis Center
11:44PM 40.3836 -85.9683 325° Northwest 490 564 34,000  Level Indianapolis Center
11:45PM 40.4889 -86.0758 322° Northwest 485 558 34,000 -180 Level Indianapolis Center
11:46PM 40.6014 -86.1767 326° Northwest 493 567 33,700 -480 Descending Indianapolis Center
11:47PM 40.6981 -86.2897 318° Northwest 491 565 33,000 -720 Descending Chicago Center
11:48PM 40.7994 -86.4072 319° Northwest 485 558 32,200 -1,380 Descending Chicago Center
11:49PM 40.9208 -86.5475 319° Northwest 483 556 30,300 -2,040 Descending Chicago Center
11:50PM 41.0183 -86.6689 317° Northwest 481 554 28,200 -2,820 Descending Chicago Center
11:51PM 41.1156 -86.7811 319° Northwest 471 542 24,700 -3,660 Descending Chicago Center
11:52PM 41.2044 -86.8997 315° West 461 531 20,900 -3,780 Descending Chicago Center
11:53PM 41.2872 -87.0144 314° West 445 512 17,100 -3,720 Descending Chicago Center
11:54PM 41.3644 -87.1267 313° West 421 484 13,500 -2,760 Descending Chicago Center
11:55PM 41.4406 -87.2242 316° Northwest 390 449 11,600 -1,260 Descending Chicago Center
11:56PM 41.5156 -87.3253 315° West 387 445 11,000 -300 Descending Chicago Center
11:57PM 41.5878 -87.4292 313° West 387 445 11,000 -300 Level Chicago Center
11:58PM 41.6564 -87.5222 315° West 359 413 10,400 -540 Descending Chicago Center
11:59PM 41.7211 -87.6092 315° West 338 389 10,000 -360 Descending Chicago Center
12:00AM 41.7850 -87.6772 322° Northwest 304 350 9,700 -1,320 Descending Chicago Center
12:01AM 41.8617 -87.7539 323° Northwest 293 337 7,400 -1,380 Descending Chicago Center
12:02AM 41.9311 -87.8075 330° Northwest 292 336 7,000 -300 Descending Chicago Center
12:03AM 41.9981 -87.8642 328° Northwest 289 333 6,900 -660 Descending Chicago Center
12:04AM 42.0694 -87.9103 334° Northwest 288 331 5,700 -960 Descending Chicago Center
12:05AM 42.1369 -87.9478 338° Northwest 272 313 5,000 -660 Descending Chicago Center
12:06AM 42.1694 -88.0142 303° West 233 268 4,400 -900 Descending Chicago Center
12:07AM 42.1269 -88.0644 221° Southwest 208 239 3,300 -840 Descending Chicago Center
12:08AM 42.0783 -88.0347 156° South 199 229 2,800 -540 Descending Chicago Center